Mayfield, Arkansas
Current Conditions -  °F | °C
As of 4:53 PM on Friday 31 Oct 2014 (Local Time) from KFYV Reporting Station
Clear Clear  
Wind Chill: 50°   Ceiling: Unl
Heat Index: 50°   Visibility: 10mi
Dew Point: 26°   Wind: 13mph
Humidity: 39%   Direction: 350°N
Pressure: 30.34"   Gusts: 20mph
Location:  35.9902°N, 94.083°W
Report Text: KFYV 312153Z 35011G17KT 10SM CLR 10/M03 A3034 RMK AO2 SLP273 T01001033
Loading
Personal Weather Stations






























Interactive Weather Map
Tropical Storm Tracking
New forecast layout! Learn more

10-Day Weather Forecast

Advertisements
Track Severe Weather on mobile